Terminal Aerodrome Forecast
Issued by NWS

Home | Current Version | Previous Version | Text Only | Print | Product List | Glossary Off
Versions: 1 2 3 4 5 6 7 8 9 10 11 12 13

000
FTUS43 KTOP 052331
TAFMHK
TAF
KMHK 052331Z 0600/0624 17007KT P6SM SKC
     FM060400 21004KT P6SM BKN080
     FM060600 32013G21KT P6SM SCT030 BKN080
     FM061100 32011KT P6SM SKC=

USA.gov is the U.S. government's official web portal to all federal, state and local government web resources and services.